Central Oregon RPC :: LAKEVIEW D2

liberation: 2020-08-29  07:30     latitude: 42.192405     longitude: -120.356890 91 birds
# LOFT PRING MILES ARRIVAL SPEED ToWin
1 HENDRICKSON FAMILY LOFT AU20-CORP-5280 150.133 2020-08-29 10:48:14.161 1332.924 00:00:00
2 AMERICAN LOFT AU20-CORP-5445 150.054 2020-08-29 10:49:14.479 1325.504 00:01:07
3 JACKSONS LOFT AU20-CORP-4667 123.948 2020-08-29 10:15:44.878 1316.142 00:02:05
4 JACKSONS LOFT AU20-CORP-5529 123.948 2020-08-29 10:15:50.202 1315.438 00:02:11
5 RUETER FAMILY LOFT AU20-CORP-4648 180.003 2020-08-29 11:31:53.090 1309.736 00:04:12
6 RUETER FAMILY LOFT AU20-CORP-4682 180.003 2020-08-29 11:31:55.217 1309.544 00:04:15
7 RUETER FAMILY LOFT AU20-CORP-4684 180.003 2020-08-29 11:33:23.414 1301.635 00:05:43
8 ROCKY TOP AU20-CORP-4450 146.242 2020-08-29 10:48:06.504 1299.215 00:05:01
9 ROCKY TOP AU20-GSC-1299 146.242 2020-08-29 10:48:08.861 1298.958 00:05:03
10 ROCKY TOP AU20-CORP-4424 146.242 2020-08-29 10:48:13.387 1298.463 00:05:07
11 TOPIGEONUSA AU20-CORP-4861 153.345 2020-08-29 10:57:57.630 1297.782 00:05:29
12 RUETER FAMILY LOFT AU20-CORP-4649 180.003 2020-08-29 11:34:14.262 1297.119 00:06:34
13 RUETER FAMILY LOFT AU20-CORP-4646 180.003 2020-08-29 11:34:55.116 1293.513 00:07:14
14 ROCKY TOP AU20-CORP-4446 146.242 2020-08-29 10:49:14.698 1291.804 00:06:09
15 STEELE LOFT AU20-ARPU-37461 153.652 2020-08-29 11:00:20.988 1285.605 00:07:28
16 ROCKY TOP AU20-PNW-2501 146.242 2020-08-29 10:50:38.746 1282.785 00:07:33
17 ROCKY TOP AU20-TAC-2774 146.242 2020-08-29 10:50:40.481 1282.600 00:07:35
18 STEELE LOFT AU20-CORP-5013 153.652 2020-08-29 11:01:19.750 1279.647 00:08:27
19 STEELE LOFT AU20-CORP-5041 153.652 2020-08-29 11:01:19.863 1279.635 00:08:27
20 STEELE LOFT AU20-CORP-5015 153.652 2020-08-29 11:01:21.878 1279.432 00:08:29
21 STEELE LOFT AU20-ARPU-37452 153.652 2020-08-29 11:01:21.994 1279.420 00:08:29
22 STEELE LOFT AU20-ARPU-37453 153.652 2020-08-29 11:01:22.712 1279.348 00:08:30
23 STEELE LOFT AU20-CORP-5085 153.652 2020-08-29 11:01:24.962 1279.121 00:08:32
24 STEELE LOFT AU20-CORP-5030 153.652 2020-08-29 11:01:26.971 1278.919 00:08:34
25 TOPIGEONUSA AU20-CORP-4392 153.345 2020-08-29 11:01:52.869 1273.768 00:09:24
26 ROCKY TOP AU20-ARPU-28128 146.242 2020-08-29 10:53:07.064 1267.174 00:10:01
27 ROCKY TOP AU20-CORP-4461 146.242 2020-08-29 10:53:07.436 1267.135 00:10:02
28 HENDRICKSON FAMILY LOFT AU20-CORP-5267 150.133 2020-08-29 10:58:36.062 1266.693 00:10:22
29 ROCKY TOP AU20-CORP-4404 146.242 2020-08-29 10:53:17.323 1266.108 00:10:11
30 AMERICAN LOFT AU20-CORP-5485 150.054 2020-08-29 10:59:09.131 1262.694 00:11:01
31 TOPIGEONUSA AU20-CORP-4862 153.345 2020-08-29 11:05:47.764 1250.659 00:13:19
32 TOPIGEONUSA AU20-CORP-4383 153.345 2020-08-29 11:07:08.290 1242.929 00:14:40
33 ROCKY TOP AU20-CORP-4455 146.242 2020-08-29 10:57:08.951 1242.512 00:14:03
34 TOPIGEONUSA AU20-CORP-4373 153.345 2020-08-29 11:09:22.212 1230.283 00:16:54
35 RUETER FAMILY LOFT AU20-CORP-4676 180.003 2020-08-29 11:48:01.642 1227.797 00:20:21
36 ROCKY TOP AU20-CORP-4442 146.242 2020-08-29 11:00:50.897 1220.714 00:17:45
37 JACKSONS LOFT AU20-CORP-5528 123.948 2020-08-29 10:28:56.438 1219.108 00:15:17
38 RUETER FAMILY LOFT AU20-CORP-4658 180.003 2020-08-29 11:50:02.162 1218.313 00:22:22
39 ROCKY TOP AU20-CORP-4445 146.242 2020-08-29 11:01:17.989 1218.105 00:18:12
40 HENDRICKSON FAMILY LOFT AU20-CORP-5268 150.133 2020-08-29 11:07:39.966 1213.940 00:19:26
41 RUETER FAMILY LOFT AU20-CORP-4661 180.003 2020-08-29 11:51:08.204 1213.178 00:23:28
42 RUETER FAMILY LOFT AU20-CORP-4663 180.003 2020-08-29 11:51:15.343 1212.625 00:23:35
43 AMERICAN LOFT AU20-CORP-5479 150.054 2020-08-29 11:07:56.028 1211.813 00:19:48
44 AMERICAN LOFT AU20-CORP-5417 150.054 2020-08-29 11:07:57.505 1211.677 00:19:50
45 AMERICAN LOFT AU20-CORP-5560 150.054 2020-08-29 11:07:58.857 1211.551 00:19:51
46 ROCKY TOP AU20-CORP-4476 146.242 2020-08-29 11:04:35.870 1199.385 00:21:30
47 TOPIGEONUSA AU20-CORP-4310 153.345 2020-08-29 11:15:07.264 1198.854 00:22:39
48 STEELE LOFT AU20-CORP-5040 153.652 2020-08-29 11:17:31.269 1188.578 00:24:38
49 STEELE LOFT AU20-CORP-5083 153.652 2020-08-29 11:18:18.091 1184.516 00:25:25
50 STEELE LOFT AU20-BORD-20064 153.652 2020-08-29 11:18:21.638 1184.209 00:25:29
51 TOPIGEONUSA AU20-CORP-4396 153.345 2020-08-29 11:23:23.694 1156.355 00:30:55
52 STEELE LOFT AU20-CORP-5035 153.652 2020-08-29 11:24:06.618 1155.125 00:31:14
53 STEELE LOFT AU20-CORP-5089 153.652 2020-08-29 11:24:08.991 1154.930 00:31:16
54 AMERICAN LOFT AU20-CORP-5575 150.054 2020-08-29 11:25:24.594 1121.852 00:37:17
55 AMERICAN LOFT AU20-CORP-5400 150.054 2020-08-29 11:25:32.986 1121.186 00:37:25
56 JACKSONS LOFT AU20-CORP-5524 123.948 2020-08-29 10:45:11.962 1117.565 00:31:32
57 AMERICAN LOFT AU20-CORP-5481 150.054 2020-08-29 11:29:24.932 1103.083 00:41:17
58 AMERICAN LOFT AU20-CORP-5497 150.054 2020-08-29 11:37:13.281 1068.254 00:49:05
59 JACKSONS LOFT AU20-CORP-5538 123.948 2020-08-29 10:55:28.050 1061.715 00:41:48
60 JACKSONS LOFT AU20-CORP-5534 123.948 2020-08-29 10:55:32.218 1061.356 00:41:53
61 JACKSONS LOFT AU20-CORP-5470 123.948 2020-08-29 10:55:35.216 1061.098 00:41:56
62 JACKSONS LOFT AU20-CORP-4647 123.948 2020-08-29 10:55:38.336 1060.830 00:41:59
63 STEELE LOFT AU20-CORP-5017 153.652 2020-08-29 11:49:24.796 1042.455 00:56:32
64 STEELE LOFT AU20-CORP-5039 153.652 2020-08-29 11:49:27.303 1042.287 00:56:34
65 JACKSONS LOFT AU20-CORP-5525 123.948 2020-08-29 11:21:52.577 940.794 01:08:13
66 JACKSONS LOFT AU20-CORP-5523 123.948 2020-08-29 11:21:55.659 940.586 01:08:16
67 JACKSONS LOFT AU20-CORP-4644 123.948 2020-08-29 11:21:57.788 940.442 01:08:18
68 RUETER FAMILY LOFT AU20-CORP-4580 180.003 2020-08-29 13:36:17.985 864.880 02:08:37
69 AMERICAN LOFT AU20-CORP-5554 150.054 2020-08-29 13:03:29.187 791.922 02:15:21
70 RIMROCK FLYERS AU20-CORP-4755 150.658 2020-08-29 13:13:43.683 771.419 02:24:48
71 RIMROCK FLYERS AU20-CORP-4753 150.658 2020-08-29 13:13:55.934 770.961 02:25:00
72 JACKSONS LOFT AU20-CORP-4665 123.948 2020-08-29 12:14:47.329 765.999 02:01:08
73 RIMROCK FLYERS AU20-CORP-4751 150.658 2020-08-29 13:22:06.698 753.052 02:33:11
74 AMERICAN LOFT AU20-CORP-5449 150.054 2020-08-29 13:52:19.671 690.756 03:04:12
75 HENDRICKSON FAMILY LOFT AU20-CORP-5292 150.133 2020-08-29 14:18:29.198 646.860 03:30:15
76 STEELE LOFT AU20-CORP-5010 153.652 2020-08-29 14:56:02.629 606.278 04:03:10
77 RUETER FAMILY LOFT AU20-CORP-4683 180.003 2020-08-29 17:21:40.843 535.433 05:54:00
78 RUETER FAMILY LOFT AU20-CORP-4651 180.003 2020-08-29 17:49:07.693 511.696 06:21:27
79 TOPIGEONUSA AU20-CORP-4860 153.345 2020-08-29 16:48:51.292 482.929 05:56:23
80 STEELE LOFT AU20-CORP-5007 153.652 2020-08-29 17:58:26.450 430.314 07:05:33
81 TOPIGEONUSA AU20-CORP-4372 153.345 2020-08-29 18:15:22.040 418.192 07:22:53
82 AMERICAN LOFT AU20-CORP-5513 150.054 2020-08-30 07:18:38.502 313.376 10:44:37
83 AMERICAN LOFT AU20-CORP-5421 150.054 2020-08-30 07:33:59.232 307.772 10:59:57
84 RIMROCK FLYERS AU20-CORP-4760 150.658 2020-08-30 08:32:27.388 289.298 11:57:38
85 JACKSONS LOFT AU20-CORP-4650 123.948 2020-08-30 09:00:19.572 230.985 13:00:46
86 TIM GRAVES AU20-CORP-4739 144.732 2020-08-30 12:53:22.186 216.336 16:26:22
87 RIMROCK FLYERS AU20-CORP-4759 150.658 2020-09-02 09:18:32.161 64.631 65:03:43
AMERICAN LOFT AU20-CORP-5460 0 0000-00-00 00:00:00.000 0.000 00:00:00
AMERICAN LOFT AU20-CORP-5507 0 0000-00-00 00:00:00.000 0.000 00:00:00
JACKSONS LOFT AU20-CORP-4660 0 0000-00-00 00:00:00.000 0.000 00:00:00
ROCKY TOP AU20-CORP-4463 0 0000-00-00 00:00:00.000 0.000 00:00:00